sensor_id;sensor_type;location;lat;lon;timestamp;P1;durP1;ratioP1;P2;durP2;ratioP2
9294;SDS011;4686;44.496;11.324;2024-03-23T00:53:51;9.30;;;8.50;;
9294;SDS011;4686;44.496;11.324;2024-03-23T00:56:18;8.73;;;8.03;;
9294;SDS011;4686;44.496;11.324;2024-03-23T00:58:45;10.23;;;8.70;;
9294;SDS011;4686;44.496;11.324;2024-03-23T01:01:12;10.20;;;9.40;;
9294;SDS011;4686;44.496;11.324;2024-03-23T01:03:39;8.73;;;8.03;;
9294;SDS011;4686;44.496;11.324;2024-03-23T01:06:06;10.10;;;8.93;;
9294;SDS011;4686;44.496;11.324;2024-03-23T01:08:33;40.90;;;10.37;;
9294;SDS011;4686;44.496;11.324;2024-03-23T01:11:01;9.90;;;9.00;;
9294;SDS011;4686;44.496;11.324;2024-03-23T01:13:29;9.00;;;8.10;;
9294;SDS011;4686;44.496;11.324;2024-03-23T01:15:56;8.27;;;7.47;;
9294;SDS011;4686;44.496;11.324;2024-03-23T01:18:23;10.67;;;8.00;;
9294;SDS011;4686;44.496;11.324;2024-03-23T01:20:51;8.57;;;7.77;;
9294;SDS011;4686;44.496;11.324;2024-03-23T01:23:19;9.27;;;8.50;;
9294;SDS011;4686;44.496;11.324;2024-03-23T01:25:51;8.77;;;8.00;;
9294;SDS011;4686;44.496;11.324;2024-03-23T01:28:20;8.40;;;7.80;;
9294;SDS011;4686;44.496;11.324;2024-03-23T01:30:46;9.03;;;7.83;;
9294;SDS011;4686;44.496;11.324;2024-03-23T01:33:13;9.50;;;8.70;;
9294;SDS011;4686;44.496;11.324;2024-03-23T01:35:40;8.53;;;7.73;;
9294;SDS011;4686;44.496;11.324;2024-03-23T01:38:07;9.93;;;8.83;;
9294;SDS011;4686;44.496;11.324;2024-03-23T01:40:34;8.90;;;8.20;;
9294;SDS011;4686;44.496;11.324;2024-03-23T01:43:03;9.10;;;8.30;;
9294;SDS011;4686;44.496;11.324;2024-03-23T01:45:31;9.40;;;8.50;;
9294;SDS011;4686;44.496;11.324;2024-03-23T01:47:58;9.40;;;8.40;;
9294;SDS011;4686;44.496;11.324;2024-03-23T01:50:25;11.10;;;8.37;;
9294;SDS011;4686;44.496;11.324;2024-03-23T01:52:53;9.60;;;8.20;;
9294;SDS011;4686;44.496;11.324;2024-03-23T01:55:19;10.27;;;9.27;;
9294;SDS011;4686;44.496;11.324;2024-03-23T01:57:46;9.43;;;8.53;;
9294;SDS011;4686;44.496;11.324;2024-03-23T02:00:13;9.87;;;8.97;;
9294;SDS011;4686;44.496;11.324;2024-03-23T02:02:43;9.03;;;8.13;;
9294;SDS011;4686;44.496;11.324;2024-03-23T02:05:10;8.90;;;8.20;;
9294;SDS011;4686;44.496;11.324;2024-03-23T02:07:37;9.73;;;8.57;;
9294;SDS011;4686;44.496;11.324;2024-03-23T02:10:04;9.27;;;8.40;;
9294;SDS011;4686;44.496;11.324;2024-03-23T02:12:32;9.60;;;8.83;;
9294;SDS011;4686;44.496;11.324;2024-03-23T02:14:58;9.07;;;8.37;;
9294;SDS011;4686;44.496;11.324;2024-03-23T02:17:26;9.70;;;8.70;;
9294;SDS011;4686;44.496;11.324;2024-03-23T02:19:53;9.43;;;8.43;;
9294;SDS011;4686;44.496;11.324;2024-03-23T02:22:21;8.53;;;7.70;;
9294;SDS011;4686;44.496;11.324;2024-03-23T02:24:49;10.53;;;7.80;;
9294;SDS011;4686;44.496;11.324;2024-03-23T02:27:16;9.90;;;8.60;;
9294;SDS011;4686;44.496;11.324;2024-03-23T02:29:43;8.90;;;8.00;;
9294;SDS011;4686;44.496;11.324;2024-03-23T02:32:10;10.00;;;7.43;;
9294;SDS011;4686;44.496;11.324;2024-03-23T02:34:38;9.23;;;8.33;;
9294;SDS011;4686;44.496;11.324;2024-03-23T02:37:10;8.30;;;7.60;;
9294;SDS011;4686;44.496;11.324;2024-03-23T02:39:36;9.40;;;8.13;;
9294;SDS011;4686;44.496;11.324;2024-03-23T02:42:05;8.63;;;7.90;;
9294;SDS011;4686;44.496;11.324;2024-03-23T02:44:31;9.20;;;8.37;;
9294;SDS011;4686;44.496;11.324;2024-03-23T02:46:59;9.23;;;8.43;;
9294;SDS011;4686;44.496;11.324;2024-03-23T02:49:25;8.90;;;8.10;;
9294;SDS011;4686;44.496;11.324;2024-03-23T02:51:52;8.73;;;7.93;;
9294;SDS011;4686;44.496;11.324;2024-03-23T02:54:19;9.70;;;8.90;;
9294;SDS011;4686;44.496;11.324;2024-03-23T02:56:46;9.00;;;8.10;;
9294;SDS011;4686;44.496;11.324;2024-03-23T02:59:14;8.73;;;8.03;;
9294;SDS011;4686;44.496;11.324;2024-03-23T03:01:41;9.30;;;8.10;;
9294;SDS011;4686;44.496;11.324;2024-03-23T03:04:08;10.40;;;9.30;;
9294;SDS011;4686;44.496;11.324;2024-03-23T03:06:35;9.37;;;8.50;;
9294;SDS011;4686;44.496;11.324;2024-03-23T03:09:02;9.40;;;8.60;;
9294;SDS011;4686;44.496;11.324;2024-03-23T03:11:29;9.07;;;8.20;;
9294;SDS011;4686;44.496;11.324;2024-03-23T03:13:56;8.77;;;8.07;;
9294;SDS011;4686;44.496;11.324;2024-03-23T03:16:26;9.40;;;8.50;;
9294;SDS011;4686;44.496;11.324;2024-03-23T03:18:53;9.47;;;8.67;;
9294;SDS011;4686;44.496;11.324;2024-03-23T03:21:21;8.87;;;7.97;;
9294;SDS011;4686;44.496;11.324;2024-03-23T03:23:47;9.73;;;8.93;;
9294;SDS011;4686;44.496;11.324;2024-03-23T03:26:15;9.33;;;8.43;;
9294;SDS011;4686;44.496;11.324;2024-03-23T03:28:42;9.60;;;8.80;;
9294;SDS011;4686;44.496;11.324;2024-03-23T03:31:13;9.63;;;8.10;;
9294;SDS011;4686;44.496;11.324;2024-03-23T03:33:41;9.90;;;9.10;;
9294;SDS011;4686;44.496;11.324;2024-03-23T03:36:09;11.00;;;9.23;;
9294;SDS011;4686;44.496;11.324;2024-03-23T03:38:35;9.50;;;8.60;;
9294;SDS011;4686;44.496;11.324;2024-03-23T03:41:03;10.20;;;8.60;;
9294;SDS011;4686;44.496;11.324;2024-03-23T03:43:31;10.37;;;9.37;;
9294;SDS011;4686;44.496;11.324;2024-03-23T03:45:59;9.13;;;8.40;;
9294;SDS011;4686;44.496;11.324;2024-03-23T03:48:25;9.43;;;8.60;;
9294;SDS011;4686;44.496;11.324;2024-03-23T03:50:54;10.07;;;9.07;;
9294;SDS011;4686;44.496;11.324;2024-03-23T03:53:21;9.33;;;8.47;;
9294;SDS011;4686;44.496;11.324;2024-03-23T03:55:48;9.13;;;8.30;;
9294;SDS011;4686;44.496;11.324;2024-03-23T03:58:15;11.00;;;10.00;;
9294;SDS011;4686;44.496;11.324;2024-03-23T04:00:43;9.67;;;8.77;;
9294;SDS011;4686;44.496;11.324;2024-03-23T04:03:09;10.70;;;9.70;;
9294;SDS011;4686;44.496;11.324;2024-03-23T04:05:37;10.63;;;9.63;;
9294;SDS011;4686;44.496;11.324;2024-03-23T04:08:05;11.53;;;8.90;;
9294;SDS011;4686;44.496;11.324;2024-03-23T04:10:33;10.10;;;9.10;;
9294;SDS011;4686;44.496;11.324;2024-03-23T04:13:00;10.10;;;9.10;;
9294;SDS011;4686;44.496;11.324;2024-03-23T04:15:29;11.20;;;9.07;;
9294;SDS011;4686;44.496;11.324;2024-03-23T04:17:56;9.87;;;8.87;;
9294;SDS011;4686;44.496;11.324;2024-03-23T04:20:23;9.23;;;8.43;;
9294;SDS011;4686;44.496;11.324;2024-03-23T04:22:50;10.33;;;8.93;;
9294;SDS011;4686;44.496;11.324;2024-03-23T04:25:18;10.37;;;9.27;;
9294;SDS011;4686;44.496;11.324;2024-03-23T04:27:45;11.33;;;9.73;;
9294;SDS011;4686;44.496;11.324;2024-03-23T04:30:12;21.17;;;10.03;;
9294;SDS011;4686;44.496;11.324;2024-03-23T04:32:40;9.87;;;8.77;;
9294;SDS011;4686;44.496;11.324;2024-03-23T04:35:08;10.63;;;9.53;;
9294;SDS011;4686;44.496;11.324;2024-03-23T04:37:34;9.73;;;8.83;;
9294;SDS011;4686;44.496;11.324;2024-03-23T04:40:02;9.50;;;8.70;;
9294;SDS011;4686;44.496;11.324;2024-03-23T04:42:31;13.33;;;9.60;;
9294;SDS011;4686;44.496;11.324;2024-03-23T04:44:59;9.80;;;8.90;;
9294;SDS011;4686;44.496;11.324;2024-03-23T04:47:26;10.57;;;9.57;;
9294;SDS011;4686;44.496;11.324;2024-03-23T04:49:54;10.20;;;9.30;;
9294;SDS011;4686;44.496;11.324;2024-03-23T04:52:22;10.40;;;9.30;;
9294;SDS011;4686;44.496;11.324;2024-03-23T04:54:48;10.23;;;9.00;;
9294;SDS011;4686;44.496;11.324;2024-03-23T04:57:16;12.10;;;9.77;;
9294;SDS011;4686;44.496;11.324;2024-03-23T04:59:44;12.33;;;9.43;;
9294;SDS011;4686;44.496;11.324;2024-03-23T05:02:12;10.00;;;9.00;;
9294;SDS011;4686;44.496;11.324;2024-03-23T05:04:38;9.60;;;8.70;;
9294;SDS011;4686;44.496;11.324;2024-03-23T05:07:06;10.93;;;9.80;;
9294;SDS011;4686;44.496;11.324;2024-03-23T05:09:33;10.23;;;9.23;;
9294;SDS011;4686;44.496;11.324;2024-03-23T05:12:00;9.87;;;8.47;;
9294;SDS011;4686;44.496;11.324;2024-03-23T05:14:27;12.17;;;9.90;;
9294;SDS011;4686;44.496;11.324;2024-03-23T05:16:56;10.87;;;8.80;;
9294;SDS011;4686;44.496;11.324;2024-03-23T05:19:23;10.20;;;9.30;;
9294;SDS011;4686;44.496;11.324;2024-03-23T05:21:51;10.50;;;9.50;;
9294;SDS011;4686;44.496;11.324;2024-03-23T05:24:18;13.53;;;8.77;;
9294;SDS011;4686;44.496;11.324;2024-03-23T05:26:45;10.20;;;9.10;;
9294;SDS011;4686;44.496;11.324;2024-03-23T05:29:12;9.77;;;8.87;;
9294;SDS011;4686;44.496;11.324;2024-03-23T05:31:42;9.73;;;8.67;;
9294;SDS011;4686;44.496;11.324;2024-03-23T05:34:10;10.00;;;9.00;;
9294;SDS011;4686;44.496;11.324;2024-03-23T05:36:37;9.90;;;8.97;;
9294;SDS011;4686;44.496;11.324;2024-03-23T05:39:04;8.73;;;7.90;;
9294;SDS011;4686;44.496;11.324;2024-03-23T05:41:31;9.60;;;8.60;;
9294;SDS011;4686;44.496;11.324;2024-03-23T05:43:59;8.53;;;7.83;;
9294;SDS011;4686;44.496;11.324;2024-03-23T05:46:26;9.73;;;8.83;;
9294;SDS011;4686;44.496;11.324;2024-03-23T05:48:53;10.30;;;8.90;;
9294;SDS011;4686;44.496;11.324;2024-03-23T05:51:24;9.10;;;8.30;;
9294;SDS011;4686;44.496;11.324;2024-03-23T05:53:51;8.37;;;7.60;;
9294;SDS011;4686;44.496;11.324;2024-03-23T05:56:19;10.57;;;8.50;;
9294;SDS011;4686;44.496;11.324;2024-03-23T05:58:45;9.23;;;8.30;;
9294;SDS011;4686;44.496;11.324;2024-03-23T06:01:13;9.33;;;8.30;;
9294;SDS011;4686;44.496;11.324;2024-03-23T06:03:39;8.23;;;7.30;;
9294;SDS011;4686;44.496;11.324;2024-03-23T06:06:09;9.00;;;8.10;;
9294;SDS011;4686;44.496;11.324;2024-03-23T06:08:38;15.17;;;8.57;;
9294;SDS011;4686;44.496;11.324;2024-03-23T06:11:06;9.13;;;8.23;;
9294;SDS011;4686;44.496;11.324;2024-03-23T06:13:33;8.90;;;8.00;;
9294;SDS011;4686;44.496;11.324;2024-03-23T06:16:00;9.27;;;8.40;;
9294;SDS011;4686;44.496;11.324;2024-03-23T06:18:27;9.43;;;7.33;;
9294;SDS011;4686;44.496;11.324;2024-03-23T06:20:54;8.93;;;8.03;;
9294;SDS011;4686;44.496;11.324;2024-03-23T06:23:20;8.90;;;8.00;;
9294;SDS011;4686;44.496;11.324;2024-03-23T06:25:49;7.70;;;6.97;;
9294;SDS011;4686;44.496;11.324;2024-03-23T06:28:15;8.43;;;7.67;;
9294;SDS011;4686;44.496;11.324;2024-03-23T06:30:43;8.73;;;7.83;;
9294;SDS011;4686;44.496;11.324;2024-03-23T06:33:09;8.33;;;7.57;;
9294;SDS011;4686;44.496;11.324;2024-03-23T06:35:37;9.87;;;7.93;;
9294;SDS011;4686;44.496;11.324;2024-03-23T06:38:03;12.83;;;7.80;;
9294;SDS011;4686;44.496;11.324;2024-03-23T06:40:31;8.73;;;7.83;;
9294;SDS011;4686;44.496;11.324;2024-03-23T06:42:59;8.03;;;7.00;;
9294;SDS011;4686;44.496;11.324;2024-03-23T06:45:26;9.60;;;6.60;;
9294;SDS011;4686;44.496;11.324;2024-03-23T06:47:53;7.87;;;7.07;;
9294;SDS011;4686;44.496;11.324;2024-03-23T06:50:23;9.57;;;7.00;;
9294;SDS011;4686;44.496;11.324;2024-03-23T06:52:49;8.40;;;6.80;;
9294;SDS011;4686;44.496;11.324;2024-03-23T06:55:17;6.77;;;6.17;;
9294;SDS011;4686;44.496;11.324;2024-03-23T06:57:43;7.40;;;6.70;;
9294;SDS011;4686;44.496;11.324;2024-03-23T07:00:13;7.10;;;6.50;;
9294;SDS011;4686;44.496;11.324;2024-03-23T07:02:41;7.80;;;7.10;;
9294;SDS011;4686;44.496;11.324;2024-03-23T07:05:09;8.10;;;7.30;;
9294;SDS011;4686;44.496;11.324;2024-03-23T07:07:35;7.17;;;6.43;;
9294;SDS011;4686;44.496;11.324;2024-03-23T07:10:04;6.67;;;5.80;;
9294;SDS011;4686;44.496;11.324;2024-03-23T07:12:30;6.90;;;6.30;;
9294;SDS011;4686;44.496;11.324;2024-03-23T07:14:57;7.47;;;6.73;;
9294;SDS011;4686;44.496;11.324;2024-03-23T07:17:25;7.20;;;6.60;;
9294;SDS011;4686;44.496;11.324;2024-03-23T07:19:53;7.17;;;6.57;;
9294;SDS011;4686;44.496;11.324;2024-03-23T07:22:19;7.57;;;6.87;;
9294;SDS011;4686;44.496;11.324;2024-03-23T07:24:46;7.70;;;6.33;;
9294;SDS011;4686;44.496;11.324;2024-03-23T07:27:13;6.93;;;6.30;;
9294;SDS011;4686;44.496;11.324;2024-03-23T07:29:40;7.43;;;6.83;;
9294;SDS011;4686;44.496;11.324;2024-03-23T07:32:07;7.17;;;6.50;;
9294;SDS011;4686;44.496;11.324;2024-03-23T07:34:38;10.00;;;6.53;;
9294;SDS011;4686;44.496;11.324;2024-03-23T07:37:04;7.10;;;6.53;;
9294;SDS011;4686;44.496;11.324;2024-03-23T07:39:31;6.90;;;6.30;;
9294;SDS011;4686;44.496;11.324;2024-03-23T07:41:59;6.57;;;5.97;;
9294;SDS011;4686;44.496;11.324;2024-03-23T07:44:26;6.87;;;6.27;;
9294;SDS011;4686;44.496;11.324;2024-03-23T07:46:54;7.07;;;6.37;;
9294;SDS011;4686;44.496;11.324;2024-03-23T07:49:22;8.83;;;6.00;;
9294;SDS011;4686;44.496;11.324;2024-03-23T07:51:50;8.53;;;6.67;;
9294;SDS011;4686;44.496;11.324;2024-03-23T07:54:17;14.80;;;6.43;;
9294;SDS011;4686;44.496;11.324;2024-03-23T07:56:44;6.70;;;6.10;;
9294;SDS011;4686;44.496;11.324;2024-03-23T07:59:11;13.80;;;6.73;;
9294;SDS011;4686;44.496;11.324;2024-03-23T08:01:37;7.87;;;6.47;;
9294;SDS011;4686;44.496;11.324;2024-03-23T08:04:05;7.00;;;6.30;;
9294;SDS011;4686;44.496;11.324;2024-03-23T08:06:31;6.53;;;6.03;;
9294;SDS011;4686;44.496;11.324;2024-03-23T08:09:00;7.63;;;6.73;;
9294;SDS011;4686;44.496;11.324;2024-03-23T08:11:27;7.00;;;6.10;;
9294;SDS011;4686;44.496;11.324;2024-03-23T08:13:55;7.43;;;6.80;;
9294;SDS011;4686;44.496;11.324;2024-03-23T08:16:22;7.23;;;6.50;;
9294;SDS011;4686;44.496;11.324;2024-03-23T08:18:50;6.70;;;6.10;;
9294;SDS011;4686;44.496;11.324;2024-03-23T08:21:17;7.03;;;6.33;;
9294;SDS011;4686;44.496;11.324;2024-03-23T08:23:45;10.67;;;5.60;;
9294;SDS011;4686;44.496;11.324;2024-03-23T08:26:14;7.23;;;6.70;;
9294;SDS011;4686;44.496;11.324;2024-03-23T08:28:42;7.03;;;6.33;;
9294;SDS011;4686;44.496;11.324;2024-03-23T08:31:09;6.67;;;5.97;;
9294;SDS011;4686;44.496;11.324;2024-03-23T08:33:38;11.00;;;6.63;;
9294;SDS011;4686;44.496;11.324;2024-03-23T08:36:05;7.47;;;6.50;;
9294;SDS011;4686;44.496;11.324;2024-03-23T08:38:33;8.03;;;6.53;;
9294;SDS011;4686;44.496;11.324;2024-03-23T08:41:00;9.77;;;6.40;;
9294;SDS011;4686;44.496;11.324;2024-03-23T08:43:29;7.07;;;6.37;;
9294;SDS011;4686;44.496;11.324;2024-03-23T08:46:03;7.47;;;6.80;;
9294;SDS011;4686;44.496;11.324;2024-03-23T08:48:31;11.63;;;6.00;;
9294;SDS011;4686;44.496;11.324;2024-03-23T08:50:59;6.57;;;6.07;;
9294;SDS011;4686;44.496;11.324;2024-03-23T08:53:33;11.40;;;6.33;;
9294;SDS011;4686;44.496;11.324;2024-03-23T08:56:05;6.60;;;6.00;;
9294;SDS011;4686;44.496;11.324;2024-03-23T08:58:35;7.13;;;6.43;;
9294;SDS011;4686;44.496;11.324;2024-03-23T09:01:05;7.03;;;6.03;;
9294;SDS011;4686;44.496;11.324;2024-03-23T09:03:33;7.57;;;6.13;;
9294;SDS011;4686;44.496;11.324;2024-03-23T09:06:00;7.07;;;6.37;;
9294;SDS011;4686;44.496;11.324;2024-03-23T09:08:31;8.93;;;6.87;;
9294;SDS011;4686;44.496;11.324;2024-03-23T09:11:03;7.63;;;6.83;;
9294;SDS011;4686;44.496;11.324;2024-03-23T09:13:31;7.37;;;6.67;;
9294;SDS011;4686;44.496;11.324;2024-03-23T09:15:59;7.50;;;6.70;;
9294;SDS011;4686;44.496;11.324;2024-03-23T09:18:31;6.60;;;6.10;;
9294;SDS011;4686;44.496;11.324;2024-03-23T09:20:57;7.93;;;6.97;;
9294;SDS011;4686;44.496;11.324;2024-03-23T09:23:24;7.10;;;6.40;;
9294;SDS011;4686;44.496;11.324;2024-03-23T09:25:51;7.33;;;6.63;;
9294;SDS011;4686;44.496;11.324;2024-03-23T09:28:18;7.13;;;6.53;;
9294;SDS011;4686;44.496;11.324;2024-03-23T09:30:45;8.20;;;7.40;;
9294;SDS011;4686;44.496;11.324;2024-03-23T09:33:14;9.23;;;8.33;;
9294;SDS011;4686;44.496;11.324;2024-03-23T09:35:41;7.53;;;6.83;;
9294;SDS011;4686;44.496;11.324;2024-03-23T09:38:09;7.40;;;6.70;;
9294;SDS011;4686;44.496;11.324;2024-03-23T09:40:40;6.83;;;6.23;;
9294;SDS011;4686;44.496;11.324;2024-03-23T09:43:08;15.60;;;13.87;;
9294;SDS011;4686;44.496;11.324;2024-03-23T09:45:38;6.70;;;6.10;;
9294;SDS011;4686;44.496;11.324;2024-03-23T09:48:06;12.50;;;10.20;;
9294;SDS011;4686;44.496;11.324;2024-03-23T09:50:34;10.40;;;9.10;;
9294;SDS011;4686;44.496;11.324;2024-03-23T09:53:03;9.03;;;7.97;;
9294;SDS011;4686;44.496;11.324;2024-03-23T09:55:29;14.63;;;12.20;;
9294;SDS011;4686;44.496;11.324;2024-03-23T09:57:56;9.63;;;8.20;;
9294;SDS011;4686;44.496;11.324;2024-03-23T10:00:23;10.40;;;8.90;;
9294;SDS011;4686;44.496;11.324;2024-03-23T10:02:51;17.70;;;14.60;;
9294;SDS011;4686;44.496;11.324;2024-03-23T10:05:20;12.10;;;8.70;;
9294;SDS011;4686;44.496;11.324;2024-03-23T10:07:50;15.70;;;10.60;;
9294;SDS011;4686;44.496;11.324;2024-03-23T10:10:16;6.70;;;6.10;;
9294;SDS011;4686;44.496;11.324;2024-03-23T10:12:45;8.03;;;7.23;;
9294;SDS011;4686;44.496;11.324;2024-03-23T10:15:15;7.47;;;6.73;;
9294;SDS011;4686;44.496;11.324;2024-03-23T10:17:42;10.40;;;9.40;;
9294;SDS011;4686;44.496;11.324;2024-03-23T10:20:10;7.00;;;6.40;;
9294;SDS011;4686;44.496;11.324;2024-03-23T10:22:37;8.73;;;7.83;;
9294;SDS011;4686;44.496;11.324;2024-03-23T10:25:08;7.50;;;6.53;;
9294;SDS011;4686;44.496;11.324;2024-03-23T10:27:35;7.80;;;6.27;;
9294;SDS011;4686;44.496;11.324;2024-03-23T10:30:08;8.23;;;6.27;;
9294;SDS011;4686;44.496;11.324;2024-03-23T10:32:35;8.73;;;7.30;;
9294;SDS011;4686;44.496;11.324;2024-03-23T10:35:14;7.97;;;6.20;;
9294;SDS011;4686;44.496;11.324;2024-03-23T10:37:44;6.67;;;6.13;;
9294;SDS011;4686;44.496;11.324;2024-03-23T10:40:14;8.23;;;6.50;;
9294;SDS011;4686;44.496;11.324;2024-03-23T10:42:41;7.73;;;6.57;;
9294;SDS011;4686;44.496;11.324;2024-03-23T10:45:08;6.80;;;6.00;;
9294;SDS011;4686;44.496;11.324;2024-03-23T10:47:36;6.23;;;5.73;;
9294;SDS011;4686;44.496;11.324;2024-03-23T10:50:03;6.30;;;5.60;;
9294;SDS011;4686;44.496;11.324;2024-03-23T10:52:32;7.40;;;6.77;;
9294;SDS011;4686;44.496;11.324;2024-03-23T10:54:59;7.00;;;5.63;;
9294;SDS011;4686;44.496;11.324;2024-03-23T10:57:30;7.67;;;7.07;;
9294;SDS011;4686;44.496;11.324;2024-03-23T11:00:01;8.47;;;7.67;;
9294;SDS011;4686;44.496;11.324;2024-03-23T11:02:29;6.27;;;5.70;;
9294;SDS011;4686;44.496;11.324;2024-03-23T11:04:56;8.97;;;6.23;;
9294;SDS011;4686;44.496;11.324;2024-03-23T11:07:30;15.20;;;13.00;;
9294;SDS011;4686;44.496;11.324;2024-03-23T11:09:57;6.80;;;6.10;;
9294;SDS011;4686;44.496;11.324;2024-03-23T11:12:29;9.03;;;8.17;;
9294;SDS011;4686;44.496;11.324;2024-03-23T11:15:18;8.30;;;7.50;;
9294;SDS011;4686;44.496;11.324;2024-03-23T11:18:02;8.17;;;7.37;;
9294;SDS011;4686;44.496;11.324;2024-03-23T11:20:31;12.43;;;7.47;;
9294;SDS011;4686;44.496;11.324;2024-03-23T11:22:59;9.70;;;5.97;;
9294;SDS011;4686;44.496;11.324;2024-03-23T11:25:26;8.47;;;7.67;;
9294;SDS011;4686;44.496;11.324;2024-03-23T11:27:56;11.10;;;10.00;;
9294;SDS011;4686;44.496;11.324;2024-03-23T11:30:23;14.77;;;13.20;;
9294;SDS011;4686;44.496;11.324;2024-03-23T11:32:51;6.70;;;6.10;;
9294;SDS011;4686;44.496;11.324;2024-03-23T11:35:26;13.57;;;10.80;;
9294;SDS011;4686;44.496;11.324;2024-03-23T11:38:06;16.63;;;12.70;;
9294;SDS011;4686;44.496;11.324;2024-03-23T11:40:33;11.90;;;9.23;;
9294;SDS011;4686;44.496;11.324;2024-03-23T11:43:04;8.70;;;6.57;;
9294;SDS011;4686;44.496;11.324;2024-03-23T11:45:34;7.00;;;6.37;;
9294;SDS011;4686;44.496;11.324;2024-03-23T11:48:02;6.97;;;6.30;;
9294;SDS011;4686;44.496;11.324;2024-03-23T11:50:28;7.43;;;6.83;;
9294;SDS011;4686;44.496;11.324;2024-03-23T11:53:13;7.10;;;6.30;;
9294;SDS011;4686;44.496;11.324;2024-03-23T11:55:41;8.30;;;6.27;;
9294;SDS011;4686;44.496;11.324;2024-03-23T11:58:10;7.20;;;5.93;;
9294;SDS011;4686;44.496;11.324;2024-03-23T12:00:37;6.90;;;6.20;;
9294;SDS011;4686;44.496;11.324;2024-03-23T12:03:04;7.27;;;6.10;;
9294;SDS011;4686;44.496;11.324;2024-03-23T12:05:31;7.23;;;6.53;;
9294;SDS011;4686;44.496;11.324;2024-03-23T12:10:40;8.00;;;6.80;;
9294;SDS011;4686;44.496;11.324;2024-03-23T12:13:06;7.80;;;7.10;;
9294;SDS011;4686;44.496;11.324;2024-03-23T12:15:35;7.07;;;6.30;;
9294;SDS011;4686;44.496;11.324;2024-03-23T12:18:08;10.97;;;9.03;;
9294;SDS011;4686;44.496;11.324;2024-03-23T12:20:35;10.80;;;8.23;;
9294;SDS011;4686;44.496;11.324;2024-03-23T12:23:09;6.90;;;6.23;;
9294;SDS011;4686;44.496;11.324;2024-03-23T12:25:38;10.00;;;6.90;;
9294;SDS011;4686;44.496;11.324;2024-03-23T12:28:04;8.43;;;6.87;;
9294;SDS011;4686;44.496;11.324;2024-03-23T12:30:33;7.43;;;6.33;;
9294;SDS011;4686;44.496;11.324;2024-03-23T12:33:01;8.00;;;7.20;;
9294;SDS011;4686;44.496;11.324;2024-03-23T12:35:28;10.00;;;7.60;;
9294;SDS011;4686;44.496;11.324;2024-03-23T12:37:55;10.10;;;9.07;;
9294;SDS011;4686;44.496;11.324;2024-03-23T12:40:22;10.20;;;7.57;;
9294;SDS011;4686;44.496;11.324;2024-03-23T12:42:49;20.40;;;18.20;;
9294;SDS011;4686;44.496;11.324;2024-03-23T12:45:16;9.50;;;6.50;;
9294;SDS011;4686;44.496;11.324;2024-03-23T12:47:43;10.77;;;9.70;;
9294;SDS011;4686;44.496;11.324;2024-03-23T12:50:12;7.20;;;6.60;;
9294;SDS011;4686;44.496;11.324;2024-03-23T12:52:41;8.50;;;7.77;;
9294;SDS011;4686;44.496;11.324;2024-03-23T12:55:09;15.73;;;10.33;;
9294;SDS011;4686;44.496;11.324;2024-03-23T12:57:36;6.30;;;5.80;;
9294;SDS011;4686;44.496;11.324;2024-03-23T13:00:07;11.47;;;8.37;;
9294;SDS011;4686;44.496;11.324;2024-03-23T13:02:36;12.80;;;7.70;;
9294;SDS011;4686;44.496;11.324;2024-03-23T13:05:04;11.43;;;6.60;;
9294;SDS011;4686;44.496;11.324;2024-03-23T13:07:32;13.43;;;10.90;;
9294;SDS011;4686;44.496;11.324;2024-03-23T13:10:00;7.30;;;6.60;;
9294;SDS011;4686;44.496;11.324;2024-03-23T13:12:27;9.27;;;7.57;;
9294;SDS011;4686;44.496;11.324;2024-03-23T13:14:55;12.20;;;9.53;;
9294;SDS011;4686;44.496;11.324;2024-03-23T13:17:21;9.70;;;7.83;;
9294;SDS011;4686;44.496;11.324;2024-03-23T13:19:48;8.70;;;5.80;;
9294;SDS011;4686;44.496;11.324;2024-03-23T13:22:16;10.47;;;9.30;;
9294;SDS011;4686;44.496;11.324;2024-03-23T13:24:45;31.60;;;21.70;;
9294;SDS011;4686;44.496;11.324;2024-03-23T13:27:11;20.93;;;14.90;;
9294;SDS011;4686;44.496;11.324;2024-03-23T13:29:39;9.37;;;7.80;;
9294;SDS011;4686;44.496;11.324;2024-03-23T13:32:06;6.07;;;4.70;;
9294;SDS011;4686;44.496;11.324;2024-03-23T13:34:33;5.37;;;4.87;;
9294;SDS011;4686;44.496;11.324;2024-03-23T13:37:01;4.60;;;3.90;;
9294;SDS011;4686;44.496;11.324;2024-03-23T13:39:27;5.13;;;4.07;;
9294;SDS011;4686;44.496;11.324;2024-03-23T13:41:55;5.73;;;3.77;;
9294;SDS011;4686;44.496;11.324;2024-03-23T13:44:22;6.73;;;5.40;;
9294;SDS011;4686;44.496;11.324;2024-03-23T13:46:51;9.80;;;4.80;;
9294;SDS011;4686;44.496;11.324;2024-03-23T13:49:24;6.07;;;4.60;;
9294;SDS011;4686;44.496;11.324;2024-03-23T13:51:52;5.27;;;4.50;;
9294;SDS011;4686;44.496;11.324;2024-03-23T13:54:18;5.47;;;4.00;;
9294;SDS011;4686;44.496;11.324;2024-03-23T13:56:47;7.30;;;5.40;;
9294;SDS011;4686;44.496;11.324;2024-03-23T13:59:16;4.47;;;4.07;;
9294;SDS011;4686;44.496;11.324;2024-03-23T14:01:44;6.90;;;4.00;;
9294;SDS011;4686;44.496;11.324;2024-03-23T14:04:10;7.00;;;4.37;;
9294;SDS011;4686;44.496;11.324;2024-03-23T14:06:38;6.53;;;4.03;;
9294;SDS011;4686;44.496;11.324;2024-03-23T14:09:05;4.87;;;4.00;;
9294;SDS011;4686;44.496;11.324;2024-03-23T14:11:34;9.03;;;4.47;;
9294;SDS011;4686;44.496;11.324;2024-03-23T14:14:00;5.87;;;5.23;;
9294;SDS011;4686;44.496;11.324;2024-03-23T14:16:30;7.47;;;4.23;;
9294;SDS011;4686;44.496;11.324;2024-03-23T14:18:56;7.27;;;4.70;;
9294;SDS011;4686;44.496;11.324;2024-03-23T14:21:24;4.67;;;4.17;;
9294;SDS011;4686;44.496;11.324;2024-03-23T14:24:00;5.80;;;4.13;;
9294;SDS011;4686;44.496;11.324;2024-03-23T14:26:29;7.40;;;4.00;;
9294;SDS011;4686;44.496;11.324;2024-03-23T14:28:56;4.60;;;4.10;;
9294;SDS011;4686;44.496;11.324;2024-03-23T14:31:24;6.63;;;4.87;;
9294;SDS011;4686;44.496;11.324;2024-03-23T14:33:54;8.87;;;4.40;;
9294;SDS011;4686;44.496;11.324;2024-03-23T14:36:24;4.60;;;3.67;;
9294;SDS011;4686;44.496;11.324;2024-03-23T14:38:52;7.97;;;3.90;;
9294;SDS011;4686;44.496;11.324;2024-03-23T14:41:20;5.40;;;3.50;;
9294;SDS011;4686;44.496;11.324;2024-03-23T14:43:47;5.57;;;4.40;;
9294;SDS011;4686;44.496;11.324;2024-03-23T14:46:16;5.63;;;3.90;;
9294;SDS011;4686;44.496;11.324;2024-03-23T14:48:43;11.13;;;3.90;;
9294;SDS011;4686;44.496;11.324;2024-03-23T14:51:12;6.33;;;3.47;;
9294;SDS011;4686;44.496;11.324;2024-03-23T14:53:39;6.27;;;3.57;;
9294;SDS011;4686;44.496;11.324;2024-03-23T14:56:08;7.73;;;3.40;;
9294;SDS011;4686;44.496;11.324;2024-03-23T14:58:35;5.97;;;3.47;;
9294;SDS011;4686;44.496;11.324;2024-03-23T15:01:02;7.33;;;3.60;;
9294;SDS011;4686;44.496;11.324;2024-03-23T15:03:29;4.70;;;3.33;;
9294;SDS011;4686;44.496;11.324;2024-03-23T15:05:57;8.23;;;3.67;;
9294;SDS011;4686;44.496;11.324;2024-03-23T15:08:26;3.80;;;3.50;;
9294;SDS011;4686;44.496;11.324;2024-03-23T15:10:54;6.27;;;4.27;;
9294;SDS011;4686;44.496;11.324;2024-03-23T15:13:20;4.87;;;3.73;;
9294;SDS011;4686;44.496;11.324;2024-03-23T15:15:49;5.37;;;4.37;;
9294;SDS011;4686;44.496;11.324;2024-03-23T15:18:17;9.13;;;3.53;;
9294;SDS011;4686;44.496;11.324;2024-03-23T15:20:53;10.40;;;4.17;;
9294;SDS011;4686;44.496;11.324;2024-03-23T15:23:20;8.90;;;4.30;;
9294;SDS011;4686;44.496;11.324;2024-03-23T15:25:54;7.47;;;4.10;;
9294;SDS011;4686;44.496;11.324;2024-03-23T15:28:21;9.00;;;4.20;;
9294;SDS011;4686;44.496;11.324;2024-03-23T15:30:48;8.07;;;4.70;;
9294;SDS011;4686;44.496;11.324;2024-03-23T15:33:15;17.73;;;4.70;;
9294;SDS011;4686;44.496;11.324;2024-03-23T15:35:43;8.53;;;4.87;;
9294;SDS011;4686;44.496;11.324;2024-03-23T15:38:09;8.73;;;4.77;;
9294;SDS011;4686;44.496;11.324;2024-03-23T15:40:36;4.87;;;4.23;;
9294;SDS011;4686;44.496;11.324;2024-03-23T15:43:05;8.03;;;5.17;;
9294;SDS011;4686;44.496;11.324;2024-03-23T15:45:32;7.10;;;4.30;;
9294;SDS011;4686;44.496;11.324;2024-03-23T15:47:59;4.60;;;4.20;;
9294;SDS011;4686;44.496;11.324;2024-03-23T15:50:27;9.70;;;4.70;;
9294;SDS011;4686;44.496;11.324;2024-03-23T15:52:53;5.83;;;3.87;;
9294;SDS011;4686;44.496;11.324;2024-03-23T15:55:21;7.10;;;4.90;;
9294;SDS011;4686;44.496;11.324;2024-03-23T15:57:47;10.13;;;4.80;;